El Paso, TX (88550)

10:54 PM MDT on June 30, 2015 (GMT -0600)
Vista del Sol | | Change Station
CLOSE
Current Station
Personal Weather Station
Location: El Paso, TX
Elevation: 4010 ft
Nearby Weather Stations

Elev 4010 ft 31.76 °N, 106.34 °W | Updated 5 minutes ago

Mostly Cloudy
Mostly Cloudy
79.6 °F
Feels Like 80 °F
N
1.0
Wind Variable Wind from SE
Gusts 3.0 mph

Today
High -- | Low -- °F
--% Chance of Precip.
Yesterday
High -- | Low -- °F
Precip. -- in
6:03 AM 8:15 PM
Waxing Gibbous, 99% visible
Pressure 29.83 in
Visibility 10.0 miles
Clouds Few 11000 ft
Mostly Cloudy 25000 ft
Heat Index 80 °F
Dew Point 56 °F
Humidity 44%
Rainfall 0.00 in
Snow Depth Not available.
UV 0 out of 12
Pollen 2.80 out of 12
Air Quality Not available.
Flu Activity Not available.
METAR KELP 010351Z 18008KT 10SM FEW110 BKN250 27/12 A3006 RMK AO2 SLP102 T02720122

More Conditions Fewer Conditions

Pressure 29.83 in
Visibility 10.0 miles
Clouds Few 11000 ft
Mostly Cloudy 25000 ft
Heat Index 80 °F
Dew Point 56 °F
Humidity 44%
Rainfall 0.00 in
Snow Depth Not available.
UV 0 out of 12
Pollen 2.80 out of 12
Air Quality Not available.
Flu Activity Not available.
METAR KELP 010351Z 18008KT 10SM FEW110 BKN250 27/12 A3006 RMK AO2 SLP102 T02720122

More Conditions Fewer Conditions

10-Day Weather Forecast

×

Almanac

Astronomy

Jun. 30, 2015 Rise Set
Actual Time
Civil Twilight
Nautical Twilight
Astronomical Twilight
Moon
Length of Visible Light
Length of Day
Tomorrow will be .
, % of the Moon is Illuminated

Today's Extremes

State Highs State Lows

Community

WunderPhotos

Upload Photos

1,834,146 photos uploaded!

WunderBlogs® & News

Nearby

Air Quality

  Air Quality AQ Index Pollutant
Not available.

Snow Depth

Station Depth Elevation

Earthquake Activity

City Distance Mag. Time & Date
Minimum magnitude displayed is 2.5.

Coastal Water Temperatures

Place Temperature

Stations

Nearby Weather Stations

Station Location Temp. Windchill Dew Point Humidity Wind Precip. Elev Updated Type